createdAt,value
2019-03-22T00:00:29.073Z,83.36
2019-03-22T00:03:38.093Z,83.69
2019-03-22T00:06:45.903Z,82.98
2019-03-22T00:09:53.551Z,82.66
2019-03-22T00:13:01.317Z,83.53
2019-03-22T00:16:08.959Z,83.82
2019-03-22T00:19:16.759Z,83.40
2019-03-22T00:22:24.415Z,84.49
2019-03-22T00:25:36.117Z,85.11
2019-03-22T00:28:46.125Z,84.55
2019-03-22T00:31:53.804Z,86.21
2019-03-22T00:35:01.369Z,84.80
2019-03-22T00:38:09.120Z,84.31
2019-03-22T00:41:16.672Z,84.86
2019-03-22T00:44:24.363Z,83.46
2019-03-22T00:47:32.057Z,83.65
2019-03-22T00:50:39.954Z,84.73
2019-03-22T00:53:47.587Z,84.94
2019-03-22T00:56:57.959Z,84.62
2019-03-22T01:00:06.925Z,85.83
2019-03-22T01:03:14.781Z,87.03
2019-03-22T01:06:24.052Z,86.72
2019-03-22T01:09:31.803Z,86.30
2019-03-22T01:12:39.580Z,86.86
2019-03-22T01:15:47.302Z,84.58
2019-03-22T01:18:55.098Z,84.48
2019-03-22T01:22:02.911Z,85.74
2019-03-22T01:25:12.621Z,84.68
2019-03-22T01:28:24.347Z,84.49
2019-03-22T01:31:33.763Z,86.72
2019-03-22T01:34:41.598Z,86.03
2019-03-22T01:37:49.368Z,85.04
2019-03-22T01:40:57.194Z,84.01
2019-03-22T01:44:05.376Z,84.96
2019-03-22T01:47:13.068Z,84.65
2019-03-22T01:50:21.014Z,84.71
2019-03-22T01:53:29.639Z,85.60
2019-03-22T01:56:37.276Z,85.56
2019-03-22T01:59:45.047Z,85.33
2019-03-22T02:02:52.689Z,85.49
2019-03-22T02:06:03.613Z,86.66
2019-03-22T02:09:11.335Z,87.26
2019-03-22T02:12:19.233Z,85.72
2019-03-22T02:15:26.802Z,86.08
2019-03-22T02:18:34.732Z,86.85
2019-03-22T02:21:44.482Z,86.59
2019-03-22T02:24:52.363Z,84.78
2019-03-22T02:28:04.327Z,84.37
2019-03-22T02:31:09.875Z,87.01
2019-03-22T02:34:17.797Z,86.75
2019-03-22T02:37:25.587Z,84.77
2019-03-22T02:40:33.343Z,86.97
2019-03-22T02:43:41.037Z,87.52
2019-03-22T02:46:48.697Z,84.86
2019-03-22T02:49:56.526Z,85.42
2019-03-22T02:53:04.119Z,86.35
2019-03-22T02:56:12.838Z,86.72
2019-03-22T02:59:20.708Z,84.63
2019-03-22T03:02:28.713Z,85.33
2019-03-22T03:05:36.589Z,84.83
2019-03-22T03:08:44.370Z,85.54
2019-03-22T03:11:52.374Z,85.95
2019-03-22T03:15:00.417Z,86.37
2019-03-22T03:18:08.233Z,84.76
2019-03-22T03:21:15.953Z,85.82
2019-03-22T03:24:23.622Z,85.58
2019-03-22T03:27:31.320Z,84.50
2019-03-22T03:30:39.014Z,84.18
2019-03-22T03:33:50.151Z,85.41
2019-03-22T03:36:57.892Z,84.93
2019-03-22T03:40:07.082Z,84.77
2019-03-22T03:43:14.806Z,85.29
2019-03-22T03:46:22.522Z,87.06
2019-03-22T03:49:30.342Z,87.72
2019-03-22T03:52:41.110Z,88.55
2019-03-22T03:55:55.003Z,87.02
2019-03-22T03:59:02.982Z,88.75
2019-03-22T04:02:10.678Z,86.21
2019-03-22T04:05:18.365Z,86.39
2019-03-22T04:08:26.005Z,86.33
2019-03-22T04:11:33.706Z,86.24
2019-03-22T04:14:41.439Z,86.18
2019-03-22T04:17:51.932Z,85.64
2019-03-22T04:21:00.174Z,85.94
2019-03-22T04:24:07.867Z,86.19
2019-03-22T04:27:15.547Z,86.77
2019-03-22T04:30:23.209Z,85.86
2019-03-22T04:33:30.853Z,86.23
2019-03-22T04:36:41.471Z,86.53
2019-03-22T04:39:50.966Z,86.35
2019-03-22T04:42:58.935Z,86.91
2019-03-22T04:46:08.458Z,87.46
2019-03-22T04:49:18.620Z,88.57
2019-03-22T04:52:27.555Z,88.45
2019-03-22T04:55:36.298Z,88.36
2019-03-22T04:58:46.993Z,88.27
2019-03-22T05:01:58.648Z,88.63
2019-03-22T05:05:07.623Z,88.20
2019-03-22T05:08:16.516Z,89.05
2019-03-22T05:11:25.883Z,88.50
2019-03-22T05:14:36.286Z,88.39
2019-03-22T05:17:44.260Z,88.01
2019-03-22T05:20:55.610Z,87.40
2019-03-22T05:24:05.336Z,87.29
2019-03-22T05:27:21.650Z,87.84
2019-03-22T05:31:17.196Z,87.77
2019-03-22T05:34:26.018Z,87.64
2019-03-22T05:37:33.647Z,88.13
2019-03-22T05:40:41.436Z,87.56
2019-03-22T05:43:50.538Z,88.73
2019-03-22T05:46:58.262Z,88.41
2019-03-22T05:50:06.284Z,88.67
2019-03-22T05:53:13.993Z,88.87
2019-03-22T05:56:21.626Z,88.72
2019-03-22T05:59:29.344Z,88.37
2019-03-22T06:02:37.398Z,88.15
2019-03-22T06:05:47.472Z,87.43
2019-03-22T06:08:55.132Z,88.19
2019-03-22T06:12:02.784Z,87.51
2019-03-22T06:15:10.558Z,87.48
2019-03-22T06:18:19.314Z,87.91
2019-03-22T06:21:26.898Z,87.60
2019-03-22T06:24:34.580Z,87.50
2019-03-22T06:27:44.088Z,86.37
2019-03-22T06:30:51.781Z,87.20
2019-03-22T06:33:59.638Z,87.04
2019-03-22T06:37:07.536Z,86.87
2019-03-22T06:40:15.244Z,86.07
2019-03-22T06:43:23.065Z,85.69
2019-03-22T06:46:30.771Z,84.76
2019-03-22T06:49:38.557Z,85.08
2019-03-22T06:52:46.173Z,84.92
2019-03-22T06:55:53.859Z,85.40
2019-03-22T06:59:01.495Z,85.47
2019-03-22T07:02:09.232Z,85.24
2019-03-22T07:05:17.115Z,85.74
2019-03-22T07:08:25.012Z,84.87
2019-03-22T07:11:32.589Z,83.96
2019-03-22T07:14:40.358Z,82.54
2019-03-22T07:17:49.287Z,82.59
2019-03-22T07:20:56.974Z,81.86
2019-03-22T07:24:04.669Z,82.87
2019-03-22T07:27:12.374Z,81.90
2019-03-22T07:30:21.210Z,81.25
2019-03-22T07:33:28.907Z,80.96
2019-03-22T07:36:36.536Z,80.59
2019-03-22T07:39:47.515Z,80.36
2019-03-22T07:42:56.521Z,79.06
2019-03-22T07:46:04.253Z,79.12
2019-03-22T07:49:11.915Z,79.23
2019-03-22T07:52:19.719Z,78.33
2019-03-22T07:55:27.404Z,79.30
2019-03-22T07:58:35.084Z,78.18
2019-03-22T08:01:43.926Z,78.43
2019-03-22T08:04:53.249Z,77.35
2019-03-22T08:08:01.210Z,75.12
2019-03-22T08:11:09.832Z,77.38
2019-03-22T08:14:17.619Z,77.34
2019-03-22T08:17:25.455Z,76.36
2019-03-22T08:20:33.196Z,75.20
2019-03-22T08:23:42.377Z,73.64
2019-03-22T08:26:50.077Z,74.10
2019-03-22T08:29:57.855Z,74.04
2019-03-22T08:33:05.608Z,73.27
2019-03-22T08:36:14.969Z,71.40
2019-03-22T08:39:22.824Z,70.77
2019-03-22T08:42:30.519Z,70.97
2019-03-22T08:45:38.282Z,71.50
2019-03-22T08:48:46.124Z,70.60
2019-03-22T08:51:53.897Z,71.55
2019-03-22T08:55:01.815Z,70.92
2019-03-22T08:58:09.852Z,70.93
2019-03-22T09:01:18.201Z,71.76
2019-03-22T09:04:26.094Z,70.90
2019-03-22T09:07:33.956Z,70.06
2019-03-22T09:10:56.856Z,71.11
2019-03-22T09:14:05.765Z,70.93
2019-03-22T09:17:13.599Z,70.80
2019-03-22T09:20:21.708Z,69.79
2019-03-22T09:23:30.156Z,69.25
2019-03-22T09:26:47.173Z,68.78
2019-03-22T09:29:48.070Z,68.96
2019-03-22T09:32:55.908Z,68.71
2019-03-22T09:36:03.551Z,66.13
2019-03-22T09:39:13.758Z,66.21
2019-03-22T09:42:21.470Z,66.81
2019-03-22T09:45:29.221Z,66.09
2019-03-22T09:48:36.970Z,65.54
2019-03-22T09:51:46.387Z,60.65
2019-03-22T09:54:54.135Z,62.60
2019-03-22T09:58:02.035Z,61.29
2019-03-22T10:01:22.888Z,61.46
2019-03-22T10:04:19.317Z,61.39
2019-03-22T10:07:27.294Z,61.59
2019-03-22T10:10:35.080Z,62.24
2019-03-22T10:13:48.432Z,61.69
2019-03-22T10:16:56.474Z,59.88
2019-03-22T10:20:04.953Z,59.58
2019-03-22T10:23:12.706Z,59.53
2019-03-22T10:26:20.559Z,58.27
2019-03-22T10:29:28.310Z,57.32
2019-03-22T10:32:36.051Z,56.98
2019-03-22T10:35:43.916Z,56.49
2019-03-22T10:38:53.330Z,55.99
2019-03-22T10:42:01.146Z,56.13
2019-03-22T10:45:09.286Z,57.25
2019-03-22T10:48:17.029Z,55.64
2019-03-22T10:51:24.812Z,56.04
2019-03-22T10:54:32.554Z,56.63
2019-03-22T10:57:40.640Z,55.52
2019-03-22T11:00:48.653Z,55.66
2019-03-22T11:03:56.477Z,54.86
2019-03-22T11:07:04.452Z,54.74
2019-03-22T11:10:16.450Z,55.68
2019-03-22T11:13:24.256Z,54.80
2019-03-22T11:16:33.165Z,53.30
2019-03-22T11:19:42.482Z,54.23
2019-03-22T11:22:50.153Z,53.47
2019-03-22T11:26:04.169Z,52.34
2019-03-22T11:29:07.327Z,54.59
2019-03-22T11:32:15.478Z,53.58
2019-03-22T11:35:23.256Z,54.87
2019-03-22T11:38:31.502Z,52.93
2019-03-22T11:41:39.172Z,51.45
2019-03-22T11:44:49.685Z,51.77
2019-03-22T11:47:57.403Z,52.28
2019-03-22T11:51:05.627Z,52.67
2019-03-22T11:54:13.431Z,51.45
2019-03-22T11:57:21.154Z,51.75
2019-03-22T12:00:30.271Z,52.21
2019-03-22T12:03:37.896Z,52.47
2019-03-22T12:06:45.636Z,53.11
2019-03-22T12:09:53.477Z,51.62
2019-03-22T12:13:02.139Z,53.39
2019-03-22T12:16:09.839Z,53.27
2019-03-22T12:19:19.462Z,52.65
2019-03-22T12:22:27.969Z,52.57
2019-03-22T12:25:45.571Z,52.91
2019-03-22T12:28:53.640Z,54.30
2019-03-22T12:32:01.295Z,53.86
2019-03-22T12:35:10.661Z,54.44
2019-03-22T12:38:18.357Z,54.73
2019-03-22T12:41:26.103Z,55.55
2019-03-22T12:44:33.818Z,55.38
2019-03-22T12:47:41.538Z,55.60
2019-03-22T12:50:49.134Z,54.65
2019-03-22T12:53:57.010Z,54.88
2019-03-22T12:57:04.781Z,54.78
2019-03-22T13:00:16.974Z,54.44
2019-03-22T13:03:24.848Z,55.50
2019-03-22T13:06:33.105Z,54.74
2019-03-22T13:09:40.809Z,54.78
2019-03-22T13:12:48.528Z,55.32
2019-03-22T13:15:56.291Z,55.42
2019-03-22T13:19:06.405Z,55.23
2019-03-22T13:22:15.566Z,54.58
2019-03-22T13:25:23.287Z,54.38
2019-03-22T13:28:32.643Z,55.23
2019-03-22T13:31:40.466Z,55.50
2019-03-22T13:34:48.155Z,54.98
2019-03-22T13:37:56.016Z,54.34
2019-03-22T13:41:03.973Z,54.03
2019-03-22T13:44:12.150Z,52.74
2019-03-22T13:47:20.769Z,51.96
2019-03-22T13:50:31.775Z,51.74
2019-03-22T13:53:39.601Z,52.40
2019-03-22T13:56:48.112Z,51.40
2019-03-22T13:59:56.582Z,51.16
2019-03-22T14:03:04.721Z,50.96
2019-03-22T14:06:12.755Z,49.87
2019-03-22T14:09:23.985Z,50.79
2019-03-22T14:12:36.960Z,50.30
2019-03-22T14:15:41.450Z,51.51
2019-03-22T14:18:49.459Z,49.95
2019-03-22T14:21:57.332Z,48.25
2019-03-22T14:25:05.711Z,43.59
2019-03-22T14:28:13.409Z,42.37
2019-03-22T14:31:21.044Z,42.87
2019-03-22T14:34:30.195Z,42.44
2019-03-22T14:37:39.583Z,42.19
2019-03-22T14:40:46.950Z,40.59
2019-03-22T14:43:54.372Z,42.34
2019-03-22T14:47:05.345Z,41.20
2019-03-22T14:50:13.037Z,42.89
2019-03-22T14:53:22.511Z,42.67
2019-03-22T14:56:30.151Z,43.71
2019-03-22T14:59:37.517Z,42.99
2019-03-22T15:02:47.026Z,41.54
2019-03-22T15:05:56.346Z,41.29
2019-03-22T15:09:05.322Z,39.81
2019-03-22T15:12:12.831Z,41.61
2019-03-22T15:15:39.525Z,40.18
2019-03-22T15:19:05.816Z,42.68
2019-03-22T15:22:33.865Z,41.22
2019-03-22T15:26:00.790Z,41.95
2019-03-22T15:29:27.373Z,41.77
2019-03-22T15:33:05.802Z,40.26
2019-03-22T15:36:30.981Z,40.44
2019-03-22T15:40:06.852Z,42.33
2019-03-22T15:43:15.608Z,41.48
2019-03-22T15:46:34.799Z,41.96
2019-03-22T15:49:42.524Z,42.44
2019-03-22T15:52:54.465Z,42.39
2019-03-22T15:56:02.440Z,42.44
2019-03-22T15:59:11.465Z,42.98
2019-03-22T16:02:22.043Z,42.66
2019-03-22T16:05:32.928Z,41.29
2019-03-22T16:08:40.805Z,40.38
2019-03-22T16:11:48.645Z,41.22
2019-03-22T16:14:58.016Z,42.00
2019-03-22T16:18:06.158Z,41.74
2019-03-22T16:21:14.737Z,41.88
2019-03-22T16:24:22.865Z,42.09
2019-03-22T16:27:31.594Z,42.63
2019-03-22T16:30:41.121Z,42.56
2019-03-22T16:33:59.050Z,42.02
2019-03-22T16:37:09.515Z,42.66
2019-03-22T16:40:24.189Z,42.63
2019-03-22T16:43:27.028Z,42.84
2019-03-22T16:46:36.155Z,42.90
2019-03-22T16:49:43.878Z,44.38
2019-03-22T16:52:51.950Z,45.36
2019-03-22T16:55:59.710Z,44.97
2019-03-22T16:59:07.385Z,46.75
2019-03-22T17:02:17.149Z,46.09
2019-03-22T17:05:25.592Z,45.75
2019-03-22T17:08:35.002Z,45.78
2019-03-22T17:11:47.848Z,49.31
2019-03-22T17:15:01.571Z,48.88
2019-03-22T17:18:11.197Z,51.29
2019-03-22T17:21:23.851Z,51.94
2019-03-22T17:24:31.918Z,54.75
2019-03-22T17:27:42.870Z,59.36
2019-03-22T17:30:50.968Z,58.20
2019-03-22T17:34:00.199Z,56.55
2019-03-22T17:37:08.194Z,62.30
2019-03-22T17:40:16.181Z,62.71
2019-03-22T17:43:26.710Z,63.10
2019-03-22T17:46:36.491Z,62.53
2019-03-22T17:49:48.489Z,63.74
2019-03-22T17:52:56.514Z,65.12
2019-03-22T17:56:04.198Z,65.02
2019-03-22T17:59:12.170Z,66.29
2019-03-22T18:02:20.049Z,65.86
2019-03-22T18:05:28.454Z,64.87
2019-03-22T18:08:37.348Z,66.25
2019-03-22T18:11:45.506Z,72.29
2019-03-22T18:14:53.331Z,68.07
2019-03-22T18:18:01.097Z,67.20
2019-03-22T18:21:08.927Z,67.47
2019-03-22T18:24:16.803Z,68.25
2019-03-22T18:27:24.558Z,67.20
2019-03-22T18:30:33.480Z,68.20
2019-03-22T18:33:41.279Z,71.03
2019-03-22T18:36:49.196Z,69.62
2019-03-22T18:39:56.927Z,69.25
2019-03-22T18:43:04.962Z,69.43
2019-03-22T18:46:15.555Z,69.38
2019-03-22T18:49:25.019Z,69.10
2019-03-22T18:52:34.065Z,70.88
2019-03-22T18:55:42.175Z,69.44
2019-03-22T18:58:49.936Z,69.56
2019-03-22T19:01:57.810Z,69.42
2019-03-22T19:05:07.891Z,69.68
2019-03-22T19:08:16.186Z,70.30
2019-03-22T19:11:25.820Z,69.69
2019-03-22T19:14:33.704Z,69.29
2019-03-22T19:17:42.595Z,68.87
2019-03-22T19:20:50.576Z,69.31
2019-03-22T19:23:58.385Z,70.13
2019-03-22T19:27:06.153Z,70.33
2019-03-22T19:30:16.483Z,70.23
2019-03-22T19:33:24.944Z,71.58
2019-03-22T19:36:32.936Z,71.62
2019-03-22T19:39:43.878Z,71.85
2019-03-22T19:42:51.624Z,74.24
2019-03-22T19:45:59.371Z,75.06
2019-03-22T19:49:07.118Z,75.19
2019-03-22T19:52:16.176Z,73.80
2019-03-22T19:55:24.064Z,73.43
2019-03-22T19:58:31.833Z,73.49
2019-03-22T20:01:39.729Z,73.59
2019-03-22T20:04:47.670Z,74.12
2019-03-22T20:07:55.350Z,74.79
2019-03-22T20:11:03.113Z,74.78
2019-03-22T20:14:10.804Z,73.62
2019-03-22T20:17:18.820Z,73.59
2019-03-22T20:20:26.905Z,74.77
2019-03-22T20:23:34.619Z,74.61
2019-03-22T20:26:42.413Z,75.47
2019-03-22T20:29:50.339Z,75.39
2019-03-22T20:32:58.111Z,75.78
2019-03-22T20:39:09.325Z,74.17
2019-03-22T20:42:17.477Z,74.02
2019-03-22T20:45:25.404Z,73.44
2019-03-22T20:48:33.107Z,73.20
2019-03-22T20:51:42.256Z,72.39
2019-03-22T20:54:49.919Z,72.74
2019-03-22T20:57:57.745Z,73.11
2019-03-22T21:01:05.854Z,72.91
2019-03-22T21:04:13.553Z,73.18
2019-03-22T21:07:21.284Z,74.52
2019-03-22T21:10:30.022Z,75.05
2019-03-22T21:13:37.886Z,75.10
2019-03-22T21:16:45.593Z,76.70
2019-03-22T21:19:58.507Z,78.01
2019-03-22T21:23:07.234Z,78.11
2019-03-22T21:26:15.034Z,78.92
2019-03-22T21:29:22.862Z,77.31
2019-03-22T21:32:30.449Z,76.95
2019-03-22T21:35:38.470Z,78.60
2019-03-22T21:38:46.133Z,78.59
2019-03-22T21:41:54.942Z,77.28
2019-03-22T21:45:02.614Z,77.42
2019-03-22T21:48:10.368Z,78.22
2019-03-22T21:51:18.070Z,79.28
2019-03-22T21:54:26.259Z,81.35
2019-03-22T21:57:33.914Z,81.91
2019-03-22T22:00:41.745Z,83.06
2019-03-22T22:03:49.465Z,79.65
2019-03-22T22:06:57.279Z,77.96
2019-03-22T22:10:05.335Z,82.46
2019-03-22T22:13:14.094Z,81.48
2019-03-22T22:16:23.038Z,80.12
2019-03-22T22:19:30.722Z,80.49
2019-03-22T22:22:38.666Z,78.24
2019-03-22T22:25:46.291Z,78.82
2019-03-22T22:28:53.947Z,78.26
2019-03-22T22:32:01.651Z,77.77
2019-03-22T22:35:09.690Z,80.04
2019-03-22T22:38:17.474Z,78.54
2019-03-22T22:41:25.277Z,80.40
2019-03-22T22:44:33.318Z,81.76
2019-03-22T22:47:41.019Z,83.66
2019-03-22T22:50:48.694Z,81.47
2019-03-22T22:53:56.485Z,80.60
2019-03-22T22:57:04.207Z,79.82
2019-03-22T23:00:17.023Z,79.94
2019-03-22T23:03:26.355Z,78.98
2019-03-22T23:06:33.929Z,79.73
2019-03-22T23:09:41.879Z,79.24
2019-03-22T23:12:49.581Z,78.86
2019-03-22T23:15:57.406Z,79.66
2019-03-22T23:19:05.060Z,79.93
2019-03-22T23:22:13.216Z,79.84
2019-03-22T23:25:21.876Z,80.26
2019-03-22T23:28:29.482Z,81.23
2019-03-22T23:31:39.023Z,80.49
2019-03-22T23:34:58.443Z,80.64
2019-03-22T23:37:57.637Z,80.49
2019-03-22T23:41:05.526Z,80.58
2019-03-22T23:44:13.588Z,80.96
2019-03-22T23:47:21.947Z,81.62
2019-03-22T23:50:29.609Z,81.38
2019-03-22T23:53:37.240Z,81.35
2019-03-22T23:56:45.137Z,81.50
2019-03-22T23:59:53.331Z,81.78
